Absecon Highlands, New Jersey
Current Conditions -  °F | °C
As of 4:54 PM on Saturday 20 Dec 2014 (Local Time) from KACY Reporting Station
Overcast Overcast  
Wind Chill: -2°   Ceiling: 3000
Heat Index:   Visibility: 10mi
Dew Point: -6°   Wind: 6mph
Humidity: 61%   Direction: 320°NW
Pressure: 30.28"   Gusts: NA
Location:  39.4315°N, 74.5003°W
Report Text: KACY 202154Z 32005KT 10SM OVC030 01/M06 A3028 RMK AO2 SLP253 T00061061
Loading
Personal Weather Stations






























Interactive Weather Map New forecast layout! Learn more

10-Day Weather Forecast

Advertisements
Track Severe Weather on mobile